sensor_id;sensor_type;location;lat;lon;timestamp;P1;durP1;ratioP1;P2;durP2;ratioP2
21158;SDS011;10737;45.436;4.390;2022-09-09T00:01:24;7.93;;;3.70;;
21158;SDS011;10737;45.436;4.390;2022-09-09T00:06:30;4.32;;;3.97;;
21158;SDS011;10737;45.436;4.390;2022-09-09T00:11:36;4.07;;;3.67;;
21158;SDS011;10737;45.436;4.390;2022-09-09T00:16:43;4.55;;;4.15;;
21158;SDS011;10737;45.436;4.390;2022-09-09T00:21:53;8.55;;;3.70;;
21158;SDS011;10737;45.436;4.390;2022-09-09T00:27:01;4.57;;;3.97;;
21158;SDS011;10737;45.436;4.390;2022-09-09T00:32:09;4.30;;;3.90;;
21158;SDS011;10737;45.436;4.390;2022-09-09T00:37:15;3.60;;;3.28;;
21158;SDS011;10737;45.436;4.390;2022-09-09T00:42:20;5.15;;;3.67;;
21158;SDS011;10737;45.436;4.390;2022-09-09T00:47:30;3.97;;;3.65;;
21158;SDS011;10737;45.436;4.390;2022-09-09T00:52:39;3.67;;;3.38;;
21158;SDS011;10737;45.436;4.390;2022-09-09T00:57:47;4.60;;;3.65;;
21158;SDS011;10737;45.436;4.390;2022-09-09T01:03:08;3.90;;;3.60;;
21158;SDS011;10737;45.436;4.390;2022-09-09T01:08:28;8.45;;;3.30;;
21158;SDS011;10737;45.436;4.390;2022-09-09T01:13:37;3.50;;;3.30;;
21158;SDS011;10737;45.436;4.390;2022-09-09T01:18:44;3.65;;;3.45;;
21158;SDS011;10737;45.436;4.390;2022-09-09T01:23:54;3.55;;;3.28;;
21158;SDS011;10737;45.436;4.390;2022-09-09T01:29:10;4.63;;;3.30;;
21158;SDS011;10737;45.436;4.390;2022-09-09T01:34:15;4.55;;;4.03;;
21158;SDS011;10737;45.436;4.390;2022-09-09T01:39:19;4.47;;;3.33;;
21158;SDS011;10737;45.436;4.390;2022-09-09T01:44:32;3.75;;;3.53;;
21158;SDS011;10737;45.436;4.390;2022-09-09T01:49:36;6.05;;;3.63;;
21158;SDS011;10737;45.436;4.390;2022-09-09T01:54:48;5.28;;;3.25;;
21158;SDS011;10737;45.436;4.390;2022-09-09T02:00:00;4.07;;;3.65;;
21158;SDS011;10737;45.436;4.390;2022-09-09T02:05:19;5.43;;;3.47;;
21158;SDS011;10737;45.436;4.390;2022-09-09T02:10:27;5.82;;;3.70;;
21158;SDS011;10737;45.436;4.390;2022-09-09T02:15:45;4.55;;;3.97;;
21158;SDS011;10737;45.436;4.390;2022-09-09T02:20:50;4.40;;;3.95;;
21158;SDS011;10737;45.436;4.390;2022-09-09T02:25:54;5.40;;;4.80;;
21158;SDS011;10737;45.436;4.390;2022-09-09T02:31:01;5.43;;;4.93;;
21158;SDS011;10737;45.436;4.390;2022-09-09T02:36:10;3.90;;;3.40;;
21158;SDS011;10737;45.436;4.390;2022-09-09T02:41:16;9.50;;;7.85;;
21158;SDS011;10737;45.436;4.390;2022-09-09T02:51:44;4.78;;;4.25;;
21158;SDS011;10737;45.436;4.390;2022-09-09T02:56:51;5.88;;;4.75;;
21158;SDS011;10737;45.436;4.390;2022-09-09T03:02:01;5.15;;;4.78;;
21158;SDS011;10737;45.436;4.390;2022-09-09T03:07:06;4.57;;;4.13;;
21158;SDS011;10737;45.436;4.390;2022-09-09T03:12:10;6.57;;;4.50;;
21158;SDS011;10737;45.436;4.390;2022-09-09T03:17:14;3.72;;;3.50;;
21158;SDS011;10737;45.436;4.390;2022-09-09T03:22:26;5.55;;;5.05;;
21158;SDS011;10737;45.436;4.390;2022-09-09T03:27:32;4.60;;;4.20;;
21158;SDS011;10737;45.436;4.390;2022-09-09T03:32:35;5.40;;;4.00;;
21158;SDS011;10737;45.436;4.390;2022-09-09T03:37:40;5.03;;;4.22;;
21158;SDS011;10737;45.436;4.390;2022-09-09T03:42:44;4.68;;;4.28;;
21158;SDS011;10737;45.436;4.390;2022-09-09T03:47:48;4.68;;;4.28;;
21158;SDS011;10737;45.436;4.390;2022-09-09T03:52:53;6.53;;;5.13;;
21158;SDS011;10737;45.436;4.390;2022-09-09T03:57:56;6.57;;;5.50;;
21158;SDS011;10737;45.436;4.390;2022-09-09T04:02:59;5.85;;;5.50;;
21158;SDS011;10737;45.436;4.390;2022-09-09T04:08:04;6.88;;;4.43;;
21158;SDS011;10737;45.436;4.390;2022-09-09T04:13:08;4.50;;;4.13;;
21158;SDS011;10737;45.436;4.390;2022-09-09T04:18:11;5.55;;;5.07;;
21158;SDS011;10737;45.436;4.390;2022-09-09T04:23:18;4.97;;;4.40;;
21158;SDS011;10737;45.436;4.390;2022-09-09T04:28:22;5.63;;;4.95;;
21158;SDS011;10737;45.436;4.390;2022-09-09T04:33:27;4.90;;;4.57;;
21158;SDS011;10737;45.436;4.390;2022-09-09T04:38:31;5.40;;;5.00;;
21158;SDS011;10737;45.436;4.390;2022-09-09T04:43:36;4.80;;;4.40;;
21158;SDS011;10737;45.436;4.390;2022-09-09T04:48:41;4.05;;;3.65;;
21158;SDS011;10737;45.436;4.390;2022-09-09T04:53:47;4.55;;;4.15;;
21158;SDS011;10737;45.436;4.390;2022-09-09T04:58:52;4.45;;;4.07;;
21158;SDS011;10737;45.436;4.390;2022-09-09T05:03:58;4.20;;;3.88;;
21158;SDS011;10737;45.436;4.390;2022-09-09T05:09:03;6.95;;;4.32;;
21158;SDS011;10737;45.436;4.390;2022-09-09T05:14:06;4.63;;;4.28;;
21158;SDS011;10737;45.436;4.390;2022-09-09T05:19:10;4.88;;;4.10;;
21158;SDS011;10737;45.436;4.390;2022-09-09T05:24:23;7.60;;;4.72;;
21158;SDS011;10737;45.436;4.390;2022-09-09T05:29:29;4.25;;;3.95;;
21158;SDS011;10737;45.436;4.390;2022-09-09T05:34:36;5.20;;;4.43;;
21158;SDS011;10737;45.436;4.390;2022-09-09T05:39:42;4.10;;;3.90;;
21158;SDS011;10737;45.436;4.390;2022-09-09T05:44:46;4.80;;;4.40;;
21158;SDS011;10737;45.436;4.390;2022-09-09T05:49:50;6.30;;;5.30;;
21158;SDS011;10737;45.436;4.390;2022-09-09T05:54:54;4.65;;;4.25;;
21158;SDS011;10737;45.436;4.390;2022-09-09T05:59:58;5.63;;;4.32;;
21158;SDS011;10737;45.436;4.390;2022-09-09T06:05:02;4.80;;;4.03;;
21158;SDS011;10737;45.436;4.390;2022-09-09T06:10:07;5.72;;;4.68;;
21158;SDS011;10737;45.436;4.390;2022-09-09T06:15:11;5.97;;;4.57;;
21158;SDS011;10737;45.436;4.390;2022-09-09T06:20:14;4.45;;;4.10;;
21158;SDS011;10737;45.436;4.390;2022-09-09T06:25:18;4.93;;;4.57;;
21158;SDS011;10737;45.436;4.390;2022-09-09T06:30:22;4.97;;;4.50;;
21158;SDS011;10737;45.436;4.390;2022-09-09T06:35:25;4.68;;;4.40;;
21158;SDS011;10737;45.436;4.390;2022-09-09T06:40:30;5.32;;;4.55;;
21158;SDS011;10737;45.436;4.390;2022-09-09T06:45:34;5.13;;;4.60;;
21158;SDS011;10737;45.436;4.390;2022-09-09T06:50:38;4.30;;;3.92;;
21158;SDS011;10737;45.436;4.390;2022-09-09T06:55:42;6.28;;;4.50;;
21158;SDS011;10737;45.436;4.390;2022-09-09T07:00:47;5.15;;;4.10;;
21158;SDS011;10737;45.436;4.390;2022-09-09T07:05:54;5.32;;;3.80;;
21158;SDS011;10737;45.436;4.390;2022-09-09T07:11:06;4.78;;;4.03;;
21158;SDS011;10737;45.436;4.390;2022-09-09T07:16:13;4.20;;;3.28;;
21158;SDS011;10737;45.436;4.390;2022-09-09T07:21:17;5.85;;;4.45;;
21158;SDS011;10737;45.436;4.390;2022-09-09T07:26:22;4.70;;;3.70;;
21158;SDS011;10737;45.436;4.390;2022-09-09T07:31:28;5.18;;;3.40;;
21158;SDS011;10737;45.436;4.390;2022-09-09T07:36:33;5.43;;;2.97;;
21158;SDS011;10737;45.436;4.390;2022-09-09T07:41:39;11.40;;;3.92;;
21158;SDS011;10737;45.436;4.390;2022-09-09T07:46:43;4.10;;;3.60;;
21158;SDS011;10737;45.436;4.390;2022-09-09T07:51:51;3.58;;;3.25;;
21158;SDS011;10737;45.436;4.390;2022-09-09T07:56:55;6.68;;;3.63;;
21158;SDS011;10737;45.436;4.390;2022-09-09T08:02:03;4.13;;;2.75;;
21158;SDS011;10737;45.436;4.390;2022-09-09T08:07:09;3.13;;;2.92;;
21158;SDS011;10737;45.436;4.390;2022-09-09T08:12:21;4.32;;;2.83;;
21158;SDS011;10737;45.436;4.390;2022-09-09T08:17:25;3.45;;;2.95;;
21158;SDS011;10737;45.436;4.390;2022-09-09T08:22:29;6.65;;;5.25;;
21158;SDS011;10737;45.436;4.390;2022-09-09T08:27:34;5.35;;;4.82;;
21158;SDS011;10737;45.436;4.390;2022-09-09T08:32:38;5.72;;;2.78;;
21158;SDS011;10737;45.436;4.390;2022-09-09T08:37:41;5.13;;;3.55;;
21158;SDS011;10737;45.436;4.390;2022-09-09T08:42:47;3.15;;;2.90;;
21158;SDS011;10737;45.436;4.390;2022-09-09T08:47:56;4.45;;;3.10;;
21158;SDS011;10737;45.436;4.390;2022-09-09T08:53:02;5.10;;;3.33;;
21158;SDS011;10737;45.436;4.390;2022-09-09T08:58:11;5.28;;;4.28;;
21158;SDS011;10737;45.436;4.390;2022-09-09T09:03:18;3.55;;;3.25;;
21158;SDS011;10737;45.436;4.390;2022-09-09T09:08:26;4.95;;;3.00;;
21158;SDS011;10737;45.436;4.390;2022-09-09T09:13:34;4.80;;;2.60;;
21158;SDS011;10737;45.436;4.390;2022-09-09T09:18:44;5.75;;;3.33;;
21158;SDS011;10737;45.436;4.390;2022-09-09T09:23:48;5.28;;;4.13;;
21158;SDS011;10737;45.436;4.390;2022-09-09T09:28:55;3.17;;;2.90;;
21158;SDS011;10737;45.436;4.390;2022-09-09T09:33:59;4.07;;;2.88;;
21158;SDS011;10737;45.436;4.390;2022-09-09T09:39:04;4.70;;;3.10;;
21158;SDS011;10737;45.436;4.390;2022-09-09T09:44:30;3.75;;;2.53;;
21158;SDS011;10737;45.436;4.390;2022-09-09T09:49:50;4.65;;;3.10;;
21158;SDS011;10737;45.436;4.390;2022-09-09T09:54:54;5.97;;;4.25;;
21158;SDS011;10737;45.436;4.390;2022-09-09T10:00:04;3.25;;;2.92;;
21158;SDS011;10737;45.436;4.390;2022-09-09T10:05:23;3.50;;;3.20;;
21158;SDS011;10737;45.436;4.390;2022-09-09T10:10:36;3.88;;;3.50;;
21158;SDS011;10737;45.436;4.390;2022-09-09T10:15:48;3.83;;;2.80;;
21158;SDS011;10737;45.436;4.390;2022-09-09T10:20:57;5.28;;;3.97;;
21158;SDS011;10737;45.436;4.390;2022-09-09T10:26:07;8.38;;;3.55;;
21158;SDS011;10737;45.436;4.390;2022-09-09T10:31:18;3.15;;;2.70;;
21158;SDS011;10737;45.436;4.390;2022-09-09T10:36:23;2.80;;;2.60;;
21158;SDS011;10737;45.436;4.390;2022-09-09T10:41:37;6.20;;;4.10;;
21158;SDS011;10737;45.436;4.390;2022-09-09T10:46:48;3.88;;;2.67;;
21158;SDS011;10737;45.436;4.390;2022-09-09T10:51:55;7.13;;;3.42;;
21158;SDS011;10737;45.436;4.390;2022-09-09T10:57:04;2.40;;;2.15;;
21158;SDS011;10737;45.436;4.390;2022-09-09T11:02:12;6.65;;;5.15;;
21158;SDS011;10737;45.436;4.390;2022-09-09T11:07:19;4.82;;;3.08;;
21158;SDS011;10737;45.436;4.390;2022-09-09T11:12:25;2.65;;;2.45;;
21158;SDS011;10737;45.436;4.390;2022-09-09T11:17:33;2.88;;;2.67;;
21158;SDS011;10737;45.436;4.390;2022-09-09T11:22:39;3.08;;;2.72;;
21158;SDS011;10737;45.436;4.390;2022-09-09T11:27:50;4.85;;;3.00;;
21158;SDS011;10737;45.436;4.390;2022-09-09T11:33:02;3.70;;;2.72;;
21158;SDS011;10737;45.436;4.390;2022-09-09T11:38:13;9.68;;;4.95;;
21158;SDS011;10737;45.436;4.390;2022-09-09T11:43:21;5.25;;;3.30;;
21158;SDS011;10737;45.436;4.390;2022-09-09T11:48:28;4.03;;;3.42;;
21158;SDS011;10737;45.436;4.390;2022-09-09T11:53:32;4.75;;;4.03;;
21158;SDS011;10737;45.436;4.390;2022-09-09T11:58:37;3.45;;;3.15;;
21158;SDS011;10737;45.436;4.390;2022-09-09T12:03:43;4.68;;;2.58;;
21158;SDS011;10737;45.436;4.390;2022-09-09T12:08:48;4.72;;;3.30;;
21158;SDS011;10737;45.436;4.390;2022-09-09T12:13:53;3.45;;;3.08;;
21158;SDS011;10737;45.436;4.390;2022-09-09T12:19:04;2.75;;;2.40;;
21158;SDS011;10737;45.436;4.390;2022-09-09T12:24:09;6.07;;;4.90;;
21158;SDS011;10737;45.436;4.390;2022-09-09T12:29:14;5.85;;;3.80;;
21158;SDS011;10737;45.436;4.390;2022-09-09T12:34:25;2.22;;;2.13;;
21158;SDS011;10737;45.436;4.390;2022-09-09T12:39:33;3.83;;;2.70;;
21158;SDS011;10737;45.436;4.390;2022-09-09T12:44:37;4.80;;;3.47;;
21158;SDS011;10737;45.436;4.390;2022-09-09T12:49:42;2.50;;;2.30;;
21158;SDS011;10737;45.436;4.390;2022-09-09T12:54:45;3.90;;;2.90;;
21158;SDS011;10737;45.436;4.390;2022-09-09T12:59:49;10.45;;;9.13;;
21158;SDS011;10737;45.436;4.390;2022-09-09T13:04:54;3.00;;;2.70;;
21158;SDS011;10737;45.436;4.390;2022-09-09T13:09:57;3.53;;;3.22;;
21158;SDS011;10737;45.436;4.390;2022-09-09T13:15:01;4.80;;;2.63;;
21158;SDS011;10737;45.436;4.390;2022-09-09T13:20:06;3.88;;;3.53;;
21158;SDS011;10737;45.436;4.390;2022-09-09T13:25:17;2.72;;;2.50;;
21158;SDS011;10737;45.436;4.390;2022-09-09T13:30:21;4.00;;;3.58;;
21158;SDS011;10737;45.436;4.390;2022-09-09T13:35:27;2.75;;;2.55;;
21158;SDS011;10737;45.436;4.390;2022-09-09T13:40:31;5.10;;;3.90;;
21158;SDS011;10737;45.436;4.390;2022-09-09T13:45:34;2.80;;;2.60;;
21158;SDS011;10737;45.436;4.390;2022-09-09T13:50:40;3.95;;;2.90;;
21158;SDS011;10737;45.436;4.390;2022-09-09T13:55:43;3.95;;;3.63;;
21158;SDS011;10737;45.436;4.390;2022-09-09T14:00:49;5.68;;;5.18;;
21158;SDS011;10737;45.436;4.390;2022-09-09T14:05:54;4.22;;;2.35;;
21158;SDS011;10737;45.436;4.390;2022-09-09T14:10:57;5.43;;;4.25;;
21158;SDS011;10737;45.436;4.390;2022-09-09T14:16:01;16.17;;;14.48;;
21158;SDS011;10737;45.436;4.390;2022-09-09T14:21:06;3.30;;;3.03;;
21158;SDS011;10737;45.436;4.390;2022-09-09T14:26:10;4.25;;;2.88;;
21158;SDS011;10737;45.436;4.390;2022-09-09T14:31:15;3.45;;;3.13;;
21158;SDS011;10737;45.436;4.390;2022-09-09T14:36:20;2.60;;;2.40;;
21158;SDS011;10737;45.436;4.390;2022-09-09T14:41:24;4.15;;;2.95;;
21158;SDS011;10737;45.436;4.390;2022-09-09T14:46:27;2.72;;;2.53;;
21158;SDS011;10737;45.436;4.390;2022-09-09T14:51:32;3.50;;;3.30;;
21158;SDS011;10737;45.436;4.390;2022-09-09T14:56:35;5.10;;;4.13;;
21158;SDS011;10737;45.436;4.390;2022-09-09T15:01:39;2.78;;;2.58;;
21158;SDS011;10737;45.436;4.390;2022-09-09T15:06:44;5.65;;;4.30;;
21158;SDS011;10737;45.436;4.390;2022-09-09T15:11:49;3.67;;;3.13;;
21158;SDS011;10737;45.436;4.390;2022-09-09T15:16:53;10.32;;;9.18;;
21158;SDS011;10737;45.436;4.390;2022-09-09T15:21:57;6.88;;;4.97;;
21158;SDS011;10737;45.436;4.390;2022-09-09T15:27:01;3.15;;;2.85;;
21158;SDS011;10737;45.436;4.390;2022-09-09T15:32:05;5.05;;;3.60;;
21158;SDS011;10737;45.436;4.390;2022-09-09T15:37:11;17.20;;;13.32;;
21158;SDS011;10737;45.436;4.390;2022-09-09T15:42:15;9.48;;;8.63;;
21158;SDS011;10737;45.436;4.390;2022-09-09T15:47:18;5.22;;;4.75;;
21158;SDS011;10737;45.436;4.390;2022-09-09T15:52:23;6.47;;;5.88;;
21158;SDS011;10737;45.436;4.390;2022-09-09T15:57:26;6.47;;;5.90;;
21158;SDS011;10737;45.436;4.390;2022-09-09T16:02:30;3.60;;;2.85;;
21158;SDS011;10737;45.436;4.390;2022-09-09T16:07:35;3.70;;;3.35;;
21158;SDS011;10737;45.436;4.390;2022-09-09T16:12:39;4.00;;;3.17;;
21158;SDS011;10737;45.436;4.390;2022-09-09T16:17:42;3.15;;;2.72;;
21158;SDS011;10737;45.436;4.390;2022-09-09T16:22:47;17.50;;;7.90;;
21158;SDS011;10737;45.436;4.390;2022-09-09T16:27:50;3.42;;;3.13;;
21158;SDS011;10737;45.436;4.390;2022-09-09T16:32:55;4.07;;;3.25;;
21158;SDS011;10737;45.436;4.390;2022-09-09T16:37:59;3.05;;;2.70;;
21158;SDS011;10737;45.436;4.390;2022-09-09T16:43:03;6.43;;;3.65;;
21158;SDS011;10737;45.436;4.390;2022-09-09T16:48:07;3.85;;;3.45;;
21158;SDS011;10737;45.436;4.390;2022-09-09T16:53:11;3.75;;;2.97;;
21158;SDS011;10737;45.436;4.390;2022-09-09T16:58:16;22.15;;;13.43;;
21158;SDS011;10737;45.436;4.390;2022-09-09T17:03:19;9.25;;;6.75;;
21158;SDS011;10737;45.436;4.390;2022-09-09T17:08:24;9.45;;;6.78;;
21158;SDS011;10737;45.436;4.390;2022-09-09T17:13:27;14.05;;;12.60;;
21158;SDS011;10737;45.436;4.390;2022-09-09T17:18:31;4.90;;;4.38;;
21158;SDS011;10737;45.436;4.390;2022-09-09T17:23:36;9.20;;;4.82;;
21158;SDS011;10737;45.436;4.390;2022-09-09T17:28:40;7.63;;;5.15;;
21158;SDS011;10737;45.436;4.390;2022-09-09T17:33:45;6.22;;;5.55;;
21158;SDS011;10737;45.436;4.390;2022-09-09T17:38:51;30.42;;;24.27;;
21158;SDS011;10737;45.436;4.390;2022-09-09T17:43:54;8.18;;;6.80;;
21158;SDS011;10737;45.436;4.390;2022-09-09T17:48:59;5.05;;;4.55;;
21158;SDS011;10737;45.436;4.390;2022-09-09T17:54:05;4.57;;;3.88;;
21158;SDS011;10737;45.436;4.390;2022-09-09T17:59:11;5.15;;;3.70;;
21158;SDS011;10737;45.436;4.390;2022-09-09T18:04:16;18.58;;;12.55;;
21158;SDS011;10737;45.436;4.390;2022-09-09T18:09:21;8.43;;;6.50;;
21158;SDS011;10737;45.436;4.390;2022-09-09T18:14:25;6.25;;;4.10;;
21158;SDS011;10737;45.436;4.390;2022-09-09T18:19:30;9.65;;;8.70;;
21158;SDS011;10737;45.436;4.390;2022-09-09T18:24:35;11.05;;;7.60;;
21158;SDS011;10737;45.436;4.390;2022-09-09T18:29:38;22.63;;;13.95;;
21158;SDS011;10737;45.436;4.390;2022-09-09T18:34:41;14.85;;;10.60;;
21158;SDS011;10737;45.436;4.390;2022-09-09T18:39:45;12.23;;;11.00;;
21158;SDS011;10737;45.436;4.390;2022-09-09T18:44:48;13.15;;;9.57;;
21158;SDS011;10737;45.436;4.390;2022-09-09T18:49:52;21.42;;;14.85;;
21158;SDS011;10737;45.436;4.390;2022-09-09T18:54:56;23.27;;;14.88;;
21158;SDS011;10737;45.436;4.390;2022-09-09T19:00:00;11.40;;;6.50;;
21158;SDS011;10737;45.436;4.390;2022-09-09T19:05:04;16.88;;;9.95;;
21158;SDS011;10737;45.436;4.390;2022-09-09T19:10:09;9.88;;;8.98;;
21158;SDS011;10737;45.436;4.390;2022-09-09T19:15:12;7.15;;;5.45;;
21158;SDS011;10737;45.436;4.390;2022-09-09T19:20:16;14.27;;;12.85;;
21158;SDS011;10737;45.436;4.390;2022-09-09T19:25:25;6.43;;;5.95;;
21158;SDS011;10737;45.436;4.390;2022-09-09T19:30:29;6.28;;;5.00;;
21158;SDS011;10737;45.436;4.390;2022-09-09T19:35:32;6.35;;;5.85;;
21158;SDS011;10737;45.436;4.390;2022-09-09T19:40:37;6.45;;;5.82;;
21158;SDS011;10737;45.436;4.390;2022-09-09T19:45:41;27.52;;;23.48;;
21158;SDS011;10737;45.436;4.390;2022-09-09T19:50:44;9.38;;;8.38;;
21158;SDS011;10737;45.436;4.390;2022-09-09T19:55:49;13.93;;;11.38;;
21158;SDS011;10737;45.436;4.390;2022-09-09T20:00:52;10.30;;;8.07;;
21158;SDS011;10737;45.436;4.390;2022-09-09T20:05:55;19.15;;;16.65;;
21158;SDS011;10737;45.436;4.390;2022-09-09T20:11:00;28.50;;;17.40;;
21158;SDS011;10737;45.436;4.390;2022-09-09T20:16:05;17.90;;;15.77;;
21158;SDS011;10737;45.436;4.390;2022-09-09T20:21:09;12.57;;;10.82;;
21158;SDS011;10737;45.436;4.390;2022-09-09T20:26:15;18.75;;;15.88;;
21158;SDS011;10737;45.436;4.390;2022-09-09T20:31:19;13.45;;;11.98;;
21158;SDS011;10737;45.436;4.390;2022-09-09T20:36:25;16.33;;;14.38;;
21158;SDS011;10737;45.436;4.390;2022-09-09T20:41:30;21.77;;;17.50;;
21158;SDS011;10737;45.436;4.390;2022-09-09T20:46:34;37.90;;;31.63;;
21158;SDS011;10737;45.436;4.390;2022-09-09T20:51:37;23.90;;;19.15;;
21158;SDS011;10737;45.436;4.390;2022-09-09T20:56:43;34.20;;;26.08;;
21158;SDS011;10737;45.436;4.390;2022-09-09T21:01:46;43.55;;;31.58;;
21158;SDS011;10737;45.436;4.390;2022-09-09T21:06:50;28.35;;;23.08;;
21158;SDS011;10737;45.436;4.390;2022-09-09T21:11:54;43.45;;;36.55;;
21158;SDS011;10737;45.436;4.390;2022-09-09T21:16:57;28.40;;;22.77;;
21158;SDS011;10737;45.436;4.390;2022-09-09T21:22:00;15.52;;;13.93;;
21158;SDS011;10737;45.436;4.390;2022-09-09T21:27:06;19.38;;;14.73;;
21158;SDS011;10737;45.436;4.390;2022-09-09T21:32:09;74.22;;;56.47;;
21158;SDS011;10737;45.436;4.390;2022-09-09T21:37:12;33.65;;;27.67;;
21158;SDS011;10737;45.436;4.390;2022-09-09T21:42:17;51.95;;;39.63;;
21158;SDS011;10737;45.436;4.390;2022-09-09T21:47:20;32.60;;;26.77;;
21158;SDS011;10737;45.436;4.390;2022-09-09T21:52:23;35.80;;;24.77;;
21158;SDS011;10737;45.436;4.390;2022-09-09T21:57:28;24.42;;;16.85;;
21158;SDS011;10737;45.436;4.390;2022-09-09T22:02:32;31.30;;;25.08;;
21158;SDS011;10737;45.436;4.390;2022-09-09T22:07:39;14.68;;;12.80;;
21158;SDS011;10737;45.436;4.390;2022-09-09T22:12:44;24.83;;;18.85;;
21158;SDS011;10737;45.436;4.390;2022-09-09T22:17:47;30.60;;;25.55;;
21158;SDS011;10737;45.436;4.390;2022-09-09T22:22:50;24.45;;;18.88;;
21158;SDS011;10737;45.436;4.390;2022-09-09T22:27:55;18.70;;;14.98;;
21158;SDS011;10737;45.436;4.390;2022-09-09T22:32:58;30.00;;;24.35;;
21158;SDS011;10737;45.436;4.390;2022-09-09T22:38:02;28.60;;;22.45;;
21158;SDS011;10737;45.436;4.390;2022-09-09T22:43:07;19.00;;;15.20;;
21158;SDS011;10737;45.436;4.390;2022-09-09T22:48:14;8.15;;;6.10;;
21158;SDS011;10737;45.436;4.390;2022-09-09T22:53:18;43.28;;;29.70;;
21158;SDS011;10737;45.436;4.390;2022-09-09T22:58:23;17.88;;;11.23;;
21158;SDS011;10737;45.436;4.390;2022-09-09T23:03:26;5.88;;;4.32;;
21158;SDS011;10737;45.436;4.390;2022-09-09T23:08:32;7.82;;;6.57;;
21158;SDS011;10737;45.436;4.390;2022-09-09T23:13:37;12.48;;;7.35;;
21158;SDS011;10737;45.436;4.390;2022-09-09T23:18:42;4.82;;;4.05;;
21158;SDS011;10737;45.436;4.390;2022-09-09T23:23:45;5.97;;;5.43;;
21158;SDS011;10737;45.436;4.390;2022-09-09T23:28:51;7.18;;;6.47;;
21158;SDS011;10737;45.436;4.390;2022-09-09T23:33:59;8.10;;;5.53;;
21158;SDS011;10737;45.436;4.390;2022-09-09T23:39:03;6.63;;;4.28;;
21158;SDS011;10737;45.436;4.390;2022-09-09T23:44:08;10.77;;;4.03;;
21158;SDS011;10737;45.436;4.390;2022-09-09T23:49:13;11.50;;;6.82;;
21158;SDS011;10737;45.436;4.390;2022-09-09T23:54:16;11.27;;;9.25;;
21158;SDS011;10737;45.436;4.390;2022-09-09T23:59:21;6.13;;;3.72;;
